sensor_id;sensor_type;location;lat;lon;timestamp;P1;durP1;ratioP1;P2;durP2;ratioP2
54831;SDS011;40730;53.068;6.572;2023-07-31T00:01:43;6.93;;;5.88;;
54831;SDS011;40730;53.068;6.572;2023-07-31T00:04:09;6.90;;;5.47;;
54831;SDS011;40730;53.068;6.572;2023-07-31T00:06:34;4.90;;;4.45;;
54831;SDS011;40730;53.068;6.572;2023-07-31T00:09:00;6.10;;;5.13;;
54831;SDS011;40730;53.068;6.572;2023-07-31T00:11:26;6.10;;;4.25;;
54831;SDS011;40730;53.068;6.572;2023-07-31T00:13:52;4.35;;;3.92;;
54831;SDS011;40730;53.068;6.572;2023-07-31T00:16:18;7.30;;;5.07;;
54831;SDS011;40730;53.068;6.572;2023-07-31T00:18:44;8.45;;;5.38;;
54831;SDS011;40730;53.068;6.572;2023-07-31T00:21:09;8.30;;;5.28;;
54831;SDS011;40730;53.068;6.572;2023-07-31T00:23:35;7.18;;;5.50;;
54831;SDS011;40730;53.068;6.572;2023-07-31T00:26:01;6.30;;;3.65;;
54831;SDS011;40730;53.068;6.572;2023-07-31T00:28:26;9.90;;;5.18;;
54831;SDS011;40730;53.068;6.572;2023-07-31T00:30:53;7.32;;;5.65;;
54831;SDS011;40730;53.068;6.572;2023-07-31T00:33:19;7.18;;;5.20;;
54831;SDS011;40730;53.068;6.572;2023-07-31T00:35:44;6.70;;;4.75;;
54831;SDS011;40730;53.068;6.572;2023-07-31T00:38:10;9.75;;;6.25;;
54831;SDS011;40730;53.068;6.572;2023-07-31T00:40:36;10.70;;;5.32;;
54831;SDS011;40730;53.068;6.572;2023-07-31T00:43:02;6.97;;;5.40;;
54831;SDS011;40730;53.068;6.572;2023-07-31T00:45:28;8.80;;;6.10;;
54831;SDS011;40730;53.068;6.572;2023-07-31T00:47:54;9.85;;;5.82;;
54831;SDS011;40730;53.068;6.572;2023-07-31T00:50:22;9.02;;;6.00;;
54831;SDS011;40730;53.068;6.572;2023-07-31T00:52:49;10.90;;;5.80;;
54831;SDS011;40730;53.068;6.572;2023-07-31T00:55:15;7.60;;;5.93;;
54831;SDS011;40730;53.068;6.572;2023-07-31T00:57:41;6.85;;;5.43;;
54831;SDS011;40730;53.068;6.572;2023-07-31T01:00:07;7.93;;;6.50;;
54831;SDS011;40730;53.068;6.572;2023-07-31T01:02:34;10.35;;;5.95;;
54831;SDS011;40730;53.068;6.572;2023-07-31T01:05:00;8.65;;;6.03;;
54831;SDS011;40730;53.068;6.572;2023-07-31T01:10:11;7.50;;;6.22;;
54831;SDS011;40730;53.068;6.572;2023-07-31T01:12:44;8.38;;;7.15;;
54831;SDS011;40730;53.068;6.572;2023-07-31T01:15:11;7.95;;;6.15;;
54831;SDS011;40730;53.068;6.572;2023-07-31T01:17:39;7.22;;;5.90;;
54831;SDS011;40730;53.068;6.572;2023-07-31T01:20:10;7.85;;;5.95;;
54831;SDS011;40730;53.068;6.572;2023-07-31T01:25:45;5.72;;;5.05;;
54831;SDS011;40730;53.068;6.572;2023-07-31T01:31:25;5.57;;;4.35;;
54831;SDS011;40730;53.068;6.572;2023-07-31T01:33:53;7.03;;;4.43;;
54831;SDS011;40730;53.068;6.572;2023-07-31T01:36:21;4.50;;;3.65;;
54831;SDS011;40730;53.068;6.572;2023-07-31T01:38:47;7.07;;;3.60;;
54831;SDS011;40730;53.068;6.572;2023-07-31T01:41:12;3.92;;;3.08;;
54831;SDS011;40730;53.068;6.572;2023-07-31T01:43:38;5.20;;;3.65;;
54831;SDS011;40730;53.068;6.572;2023-07-31T01:46:04;4.20;;;3.05;;
54831;SDS011;40730;53.068;6.572;2023-07-31T01:48:29;5.20;;;2.65;;
54831;SDS011;40730;53.068;6.572;2023-07-31T01:51:00;2.90;;;2.58;;
54831;SDS011;40730;53.068;6.572;2023-07-31T01:53:27;2.38;;;2.17;;
54831;SDS011;40730;53.068;6.572;2023-07-31T01:55:52;3.42;;;2.05;;
54831;SDS011;40730;53.068;6.572;2023-07-31T01:58:18;1.98;;;1.60;;
54831;SDS011;40730;53.068;6.572;2023-07-31T02:00:43;3.85;;;2.10;;
54831;SDS011;40730;53.068;6.572;2023-07-31T02:03:09;3.45;;;1.30;;
54831;SDS011;40730;53.068;6.572;2023-07-31T02:05:35;2.15;;;1.40;;
54831;SDS011;40730;53.068;6.572;2023-07-31T02:08:00;3.20;;;1.60;;
54831;SDS011;40730;53.068;6.572;2023-07-31T02:10:26;1.90;;;1.70;;
54831;SDS011;40730;53.068;6.572;2023-07-31T02:12:51;2.50;;;0.70;;
54831;SDS011;40730;53.068;6.572;2023-07-31T02:15:17;1.50;;;0.60;;
54831;SDS011;40730;53.068;6.572;2023-07-31T02:17:43;1.23;;;0.75;;
54831;SDS011;40730;53.068;6.572;2023-07-31T02:20:09;1.35;;;0.43;;
54831;SDS011;40730;53.068;6.572;2023-07-31T02:22:35;2.13;;;0.60;;
54831;SDS011;40730;53.068;6.572;2023-07-31T02:25:00;1.10;;;0.40;;
54831;SDS011;40730;53.068;6.572;2023-07-31T02:27:26;1.95;;;0.47;;
54831;SDS011;40730;53.068;6.572;2023-07-31T02:29:52;0.60;;;0.30;;
54831;SDS011;40730;53.068;6.572;2023-07-31T02:32:19;0.77;;;0.20;;
54831;SDS011;40730;53.068;6.572;2023-07-31T02:34:44;1.20;;;0.22;;
54831;SDS011;40730;53.068;6.572;2023-07-31T02:37:10;1.85;;;0.30;;
54831;SDS011;40730;53.068;6.572;2023-07-31T02:39:36;1.23;;;0.30;;
54831;SDS011;40730;53.068;6.572;2023-07-31T02:42:01;0.93;;;0.32;;
54831;SDS011;40730;53.068;6.572;2023-07-31T02:44:27;0.85;;;0.25;;
54831;SDS011;40730;53.068;6.572;2023-07-31T02:46:53;0.98;;;0.30;;
54831;SDS011;40730;53.068;6.572;2023-07-31T02:49:18;2.10;;;0.43;;
54831;SDS011;40730;53.068;6.572;2023-07-31T02:51:44;1.35;;;0.52;;
54831;SDS011;40730;53.068;6.572;2023-07-31T02:54:09;1.85;;;0.30;;
54831;SDS011;40730;53.068;6.572;2023-07-31T02:56:35;1.30;;;0.40;;
54831;SDS011;40730;53.068;6.572;2023-07-31T02:59:01;1.40;;;0.32;;
54831;SDS011;40730;53.068;6.572;2023-07-31T03:01:26;1.05;;;0.40;;
54831;SDS011;40730;53.068;6.572;2023-07-31T03:03:52;0.60;;;0.30;;
54831;SDS011;40730;53.068;6.572;2023-07-31T03:06:18;4.40;;;0.73;;
54831;SDS011;40730;53.068;6.572;2023-07-31T03:08:43;2.20;;;0.55;;
54831;SDS011;40730;53.068;6.572;2023-07-31T03:11:09;0.73;;;0.30;;
54831;SDS011;40730;53.068;6.572;2023-07-31T03:13:35;0.80;;;0.30;;
54831;SDS011;40730;53.068;6.572;2023-07-31T03:16:00;1.13;;;0.40;;
54831;SDS011;40730;53.068;6.572;2023-07-31T03:18:26;1.13;;;0.68;;
54831;SDS011;40730;53.068;6.572;2023-07-31T03:20:51;1.45;;;0.65;;
54831;SDS011;40730;53.068;6.572;2023-07-31T03:23:17;1.10;;;0.40;;
54831;SDS011;40730;53.068;6.572;2023-07-31T03:25:55;2.55;;;0.82;;
54831;SDS011;40730;53.068;6.572;2023-07-31T03:28:21;2.08;;;0.60;;
54831;SDS011;40730;53.068;6.572;2023-07-31T03:30:47;2.47;;;0.60;;
54831;SDS011;40730;53.068;6.572;2023-07-31T03:33:12;1.05;;;0.47;;
54831;SDS011;40730;53.068;6.572;2023-07-31T03:35:38;1.27;;;0.50;;
54831;SDS011;40730;53.068;6.572;2023-07-31T03:38:04;2.15;;;0.30;;
54831;SDS011;40730;53.068;6.572;2023-07-31T03:40:29;1.85;;;0.90;;
54831;SDS011;40730;53.068;6.572;2023-07-31T03:42:55;1.77;;;0.50;;
54831;SDS011;40730;53.068;6.572;2023-07-31T03:45:20;1.33;;;0.30;;
54831;SDS011;40730;53.068;6.572;2023-07-31T03:47:46;1.63;;;0.20;;
54831;SDS011;40730;53.068;6.572;2023-07-31T03:50:11;0.50;;;0.25;;
54831;SDS011;40730;53.068;6.572;2023-07-31T03:52:37;2.03;;;0.30;;
54831;SDS011;40730;53.068;6.572;2023-07-31T03:55:03;1.23;;;0.20;;
54831;SDS011;40730;53.068;6.572;2023-07-31T03:57:29;0.65;;;0.30;;
54831;SDS011;40730;53.068;6.572;2023-07-31T03:59:54;0.40;;;0.10;;
54831;SDS011;40730;53.068;6.572;2023-07-31T04:02:20;1.00;;;0.20;;
54831;SDS011;40730;53.068;6.572;2023-07-31T04:04:45;1.55;;;0.30;;
54831;SDS011;40730;53.068;6.572;2023-07-31T04:07:11;0.57;;;0.20;;
54831;SDS011;40730;53.068;6.572;2023-07-31T04:09:36;1.45;;;0.20;;
54831;SDS011;40730;53.068;6.572;2023-07-31T04:12:02;1.95;;;0.40;;
54831;SDS011;40730;53.068;6.572;2023-07-31T04:14:28;1.85;;;0.40;;
54831;SDS011;40730;53.068;6.572;2023-07-31T04:16:53;0.90;;;0.40;;
54831;SDS011;40730;53.068;6.572;2023-07-31T04:19:19;1.85;;;0.60;;
54831;SDS011;40730;53.068;6.572;2023-07-31T04:21:45;1.08;;;0.40;;
54831;SDS011;40730;53.068;6.572;2023-07-31T04:24:10;1.55;;;0.57;;
54831;SDS011;40730;53.068;6.572;2023-07-31T04:26:36;2.70;;;0.40;;
54831;SDS011;40730;53.068;6.572;2023-07-31T04:29:01;2.15;;;0.60;;
54831;SDS011;40730;53.068;6.572;2023-07-31T04:31:27;1.15;;;0.60;;
54831;SDS011;40730;53.068;6.572;2023-07-31T04:33:53;4.50;;;0.90;;
54831;SDS011;40730;53.068;6.572;2023-07-31T04:36:18;1.40;;;0.73;;
54831;SDS011;40730;53.068;6.572;2023-07-31T04:38:44;1.58;;;0.73;;
54831;SDS011;40730;53.068;6.572;2023-07-31T04:41:09;1.98;;;0.77;;
54831;SDS011;40730;53.068;6.572;2023-07-31T04:43:35;4.50;;;0.75;;
54831;SDS011;40730;53.068;6.572;2023-07-31T04:46:03;3.35;;;0.68;;
54831;SDS011;40730;53.068;6.572;2023-07-31T04:48:30;3.80;;;0.60;;
54831;SDS011;40730;53.068;6.572;2023-07-31T04:50:55;3.55;;;0.70;;
54831;SDS011;40730;53.068;6.572;2023-07-31T04:53:21;1.77;;;0.90;;
54831;SDS011;40730;53.068;6.572;2023-07-31T04:55:46;2.03;;;0.60;;
54831;SDS011;40730;53.068;6.572;2023-07-31T04:58:12;1.65;;;0.73;;
54831;SDS011;40730;53.068;6.572;2023-07-31T05:00:38;2.97;;;0.77;;
54831;SDS011;40730;53.068;6.572;2023-07-31T05:03:03;6.88;;;1.70;;
54831;SDS011;40730;53.068;6.572;2023-07-31T05:05:29;4.32;;;0.70;;
54831;SDS011;40730;53.068;6.572;2023-07-31T05:07:55;5.03;;;1.08;;
54831;SDS011;40730;53.068;6.572;2023-07-31T05:10:21;2.97;;;0.65;;
54831;SDS011;40730;53.068;6.572;2023-07-31T05:12:46;4.72;;;1.15;;
54831;SDS011;40730;53.068;6.572;2023-07-31T05:15:12;2.17;;;0.68;;
54831;SDS011;40730;53.068;6.572;2023-07-31T05:17:38;2.17;;;0.98;;
54831;SDS011;40730;53.068;6.572;2023-07-31T05:20:03;2.20;;;0.77;;
54831;SDS011;40730;53.068;6.572;2023-07-31T05:22:29;5.13;;;0.77;;
54831;SDS011;40730;53.068;6.572;2023-07-31T05:24:55;2.63;;;0.80;;
54831;SDS011;40730;53.068;6.572;2023-07-31T05:27:21;5.30;;;1.00;;
54831;SDS011;40730;53.068;6.572;2023-07-31T05:29:46;4.40;;;0.90;;
54831;SDS011;40730;53.068;6.572;2023-07-31T05:32:12;3.85;;;0.85;;
54831;SDS011;40730;53.068;6.572;2023-07-31T05:34:37;6.70;;;1.60;;
54831;SDS011;40730;53.068;6.572;2023-07-31T05:37:03;4.32;;;1.05;;
54831;SDS011;40730;53.068;6.572;2023-07-31T05:39:29;3.58;;;1.20;;
54831;SDS011;40730;53.068;6.572;2023-07-31T05:41:55;6.95;;;1.92;;
54831;SDS011;40730;53.068;6.572;2023-07-31T05:44:20;8.02;;;2.10;;
54831;SDS011;40730;53.068;6.572;2023-07-31T05:46:46;8.75;;;2.00;;
54831;SDS011;40730;53.068;6.572;2023-07-31T05:49:12;9.23;;;2.75;;
54831;SDS011;40730;53.068;6.572;2023-07-31T05:51:38;8.68;;;2.40;;
54831;SDS011;40730;53.068;6.572;2023-07-31T05:54:03;10.95;;;3.10;;
54831;SDS011;40730;53.068;6.572;2023-07-31T05:56:29;8.38;;;3.33;;
54831;SDS011;40730;53.068;6.572;2023-07-31T05:58:55;9.93;;;3.85;;
54831;SDS011;40730;53.068;6.572;2023-07-31T06:01:22;14.68;;;5.13;;
54831;SDS011;40730;53.068;6.572;2023-07-31T06:03:47;14.27;;;4.57;;
54831;SDS011;40730;53.068;6.572;2023-07-31T06:06:13;23.80;;;7.13;;
54831;SDS011;40730;53.068;6.572;2023-07-31T06:08:39;26.73;;;7.82;;
54831;SDS011;40730;53.068;6.572;2023-07-31T06:11:05;35.28;;;9.07;;
54831;SDS011;40730;53.068;6.572;2023-07-31T06:13:30;35.90;;;9.60;;
54831;SDS011;40730;53.068;6.572;2023-07-31T06:15:56;32.17;;;10.20;;
54831;SDS011;40730;53.068;6.572;2023-07-31T06:18:22;44.08;;;10.95;;
54831;SDS011;40730;53.068;6.572;2023-07-31T06:20:47;37.67;;;10.75;;
54831;SDS011;40730;53.068;6.572;2023-07-31T06:23:18;41.17;;;11.43;;
54831;SDS011;40730;53.068;6.572;2023-07-31T06:25:44;35.47;;;10.60;;
54831;SDS011;40730;53.068;6.572;2023-07-31T06:28:10;31.08;;;8.85;;
54831;SDS011;40730;53.068;6.572;2023-07-31T06:30:35;40.67;;;11.75;;
54831;SDS011;40730;53.068;6.572;2023-07-31T06:33:01;40.72;;;11.23;;
54831;SDS011;40730;53.068;6.572;2023-07-31T06:35:27;38.55;;;10.98;;
54831;SDS011;40730;53.068;6.572;2023-07-31T06:37:52;37.33;;;9.90;;
54831;SDS011;40730;53.068;6.572;2023-07-31T06:40:18;34.60;;;9.77;;
54831;SDS011;40730;53.068;6.572;2023-07-31T06:42:44;44.40;;;10.70;;
54831;SDS011;40730;53.068;6.572;2023-07-31T06:45:10;31.25;;;9.15;;
54831;SDS011;40730;53.068;6.572;2023-07-31T06:47:35;37.75;;;9.15;;
54831;SDS011;40730;53.068;6.572;2023-07-31T06:50:01;28.80;;;8.18;;
54831;SDS011;40730;53.068;6.572;2023-07-31T06:52:27;27.00;;;7.55;;
54831;SDS011;40730;53.068;6.572;2023-07-31T06:55:02;30.00;;;8.38;;
54831;SDS011;40730;53.068;6.572;2023-07-31T06:57:29;21.42;;;6.80;;
54831;SDS011;40730;53.068;6.572;2023-07-31T06:59:55;35.85;;;8.77;;
54831;SDS011;40730;53.068;6.572;2023-07-31T07:02:20;28.75;;;7.80;;
54831;SDS011;40730;53.068;6.572;2023-07-31T07:04:46;33.80;;;7.47;;
54831;SDS011;40730;53.068;6.572;2023-07-31T07:07:12;29.20;;;7.78;;
54831;SDS011;40730;53.068;6.572;2023-07-31T07:09:37;28.20;;;8.98;;
54831;SDS011;40730;53.068;6.572;2023-07-31T07:12:03;28.98;;;7.93;;
54831;SDS011;40730;53.068;6.572;2023-07-31T07:14:29;31.98;;;8.25;;
54831;SDS011;40730;53.068;6.572;2023-07-31T07:16:54;24.38;;;7.18;;
54831;SDS011;40730;53.068;6.572;2023-07-31T07:19:20;23.77;;;6.38;;
54831;SDS011;40730;53.068;6.572;2023-07-31T07:21:45;29.73;;;6.90;;
54831;SDS011;40730;53.068;6.572;2023-07-31T07:24:11;23.00;;;6.38;;
54831;SDS011;40730;53.068;6.572;2023-07-31T07:26:36;20.58;;;6.82;;
54831;SDS011;40730;53.068;6.572;2023-07-31T07:29:02;17.15;;;5.22;;
54831;SDS011;40730;53.068;6.572;2023-07-31T07:31:28;19.17;;;5.68;;
54831;SDS011;40730;53.068;6.572;2023-07-31T07:33:53;12.70;;;3.65;;
54831;SDS011;40730;53.068;6.572;2023-07-31T07:36:19;15.65;;;4.07;;
54831;SDS011;40730;53.068;6.572;2023-07-31T07:38:45;11.88;;;3.80;;
54831;SDS011;40730;53.068;6.572;2023-07-31T07:41:10;12.70;;;3.53;;
54831;SDS011;40730;53.068;6.572;2023-07-31T07:43:36;9.68;;;2.80;;
54831;SDS011;40730;53.068;6.572;2023-07-31T07:46:01;7.22;;;2.90;;
54831;SDS011;40730;53.068;6.572;2023-07-31T07:48:27;5.47;;;2.63;;
54831;SDS011;40730;53.068;6.572;2023-07-31T07:50:53;12.07;;;3.45;;
54831;SDS011;40730;53.068;6.572;2023-07-31T07:53:18;8.00;;;3.00;;
54831;SDS011;40730;53.068;6.572;2023-07-31T07:55:44;4.18;;;2.15;;
54831;SDS011;40730;53.068;6.572;2023-07-31T07:58:10;5.65;;;2.50;;
54831;SDS011;40730;53.068;6.572;2023-07-31T08:00:35;7.63;;;2.90;;
54831;SDS011;40730;53.068;6.572;2023-07-31T08:03:01;5.70;;;2.72;;
54831;SDS011;40730;53.068;6.572;2023-07-31T08:05:26;6.57;;;2.45;;
54831;SDS011;40730;53.068;6.572;2023-07-31T08:07:52;4.95;;;1.60;;
54831;SDS011;40730;53.068;6.572;2023-07-31T08:10:18;7.55;;;1.90;;
54831;SDS011;40730;53.068;6.572;2023-07-31T08:12:43;7.65;;;1.80;;
54831;SDS011;40730;53.068;6.572;2023-07-31T08:15:09;3.65;;;1.70;;
54831;SDS011;40730;53.068;6.572;2023-07-31T08:17:35;5.32;;;1.33;;
54831;SDS011;40730;53.068;6.572;2023-07-31T08:20:00;5.70;;;1.90;;
54831;SDS011;40730;53.068;6.572;2023-07-31T08:22:26;6.00;;;2.38;;
54831;SDS011;40730;53.068;6.572;2023-07-31T08:24:51;4.53;;;2.20;;
54831;SDS011;40730;53.068;6.572;2023-07-31T08:27:17;9.40;;;2.83;;
54831;SDS011;40730;53.068;6.572;2023-07-31T08:29:43;5.32;;;2.13;;
54831;SDS011;40730;53.068;6.572;2023-07-31T08:32:08;4.15;;;1.80;;
54831;SDS011;40730;53.068;6.572;2023-07-31T08:34:34;4.22;;;1.75;;
54831;SDS011;40730;53.068;6.572;2023-07-31T08:36:59;3.03;;;1.60;;
54831;SDS011;40730;53.068;6.572;2023-07-31T08:39:25;5.55;;;1.50;;
54831;SDS011;40730;53.068;6.572;2023-07-31T08:41:50;2.85;;;0.82;;
54831;SDS011;40730;53.068;6.572;2023-07-31T08:44:16;4.90;;;1.20;;
54831;SDS011;40730;53.068;6.572;2023-07-31T08:46:43;3.17;;;0.80;;
54831;SDS011;40730;53.068;6.572;2023-07-31T08:49:11;2.38;;;0.90;;
54831;SDS011;40730;53.068;6.572;2023-07-31T08:51:37;2.28;;;0.70;;
54831;SDS011;40730;53.068;6.572;2023-07-31T08:54:03;1.35;;;0.60;;
54831;SDS011;40730;53.068;6.572;2023-07-31T08:56:32;2.70;;;0.63;;
54831;SDS011;40730;53.068;6.572;2023-07-31T08:58:58;1.85;;;0.68;;
54831;SDS011;40730;53.068;6.572;2023-07-31T09:01:27;1.50;;;0.52;;
54831;SDS011;40730;53.068;6.572;2023-07-31T09:03:54;1.52;;;0.60;;
54831;SDS011;40730;53.068;6.572;2023-07-31T09:06:21;1.50;;;0.40;;
54831;SDS011;40730;53.068;6.572;2023-07-31T09:08:51;2.38;;;0.80;;
54831;SDS011;40730;53.068;6.572;2023-07-31T09:11:17;1.80;;;0.95;;
54831;SDS011;40730;53.068;6.572;2023-07-31T09:13:45;1.33;;;0.60;;
54831;SDS011;40730;53.068;6.572;2023-07-31T09:16:11;0.90;;;0.40;;
54831;SDS011;40730;53.068;6.572;2023-07-31T09:18:52;2.10;;;0.40;;
54831;SDS011;40730;53.068;6.572;2023-07-31T09:21:19;1.20;;;0.30;;
54831;SDS011;40730;53.068;6.572;2023-07-31T09:23:45;1.25;;;0.25;;
54831;SDS011;40730;53.068;6.572;2023-07-31T09:26:46;0.57;;;0.30;;
54831;SDS011;40730;53.068;6.572;2023-07-31T09:29:05;1.00;;;0.50;;
54831;SDS011;40730;53.068;6.572;2023-07-31T09:31:43;1.90;;;0.20;;
54831;SDS011;40730;53.068;6.572;2023-07-31T09:34:09;0.70;;;0.20;;
54831;SDS011;40730;53.068;6.572;2023-07-31T09:36:42;0.22;;;0.10;;
54831;SDS011;40730;53.068;6.572;2023-07-31T09:39:13;0.65;;;0.10;;
54831;SDS011;40730;53.068;6.572;2023-07-31T09:41:42;0.47;;;0.10;;
54831;SDS011;40730;53.068;6.572;2023-07-31T09:44:09;0.30;;;0.10;;
54831;SDS011;40730;53.068;6.572;2023-07-31T09:46:35;0.30;;;0.10;;
54831;SDS011;40730;53.068;6.572;2023-07-31T09:49:09;0.30;;;0.10;;
54831;SDS011;40730;53.068;6.572;2023-07-31T09:51:36;0.63;;;0.10;;
54831;SDS011;40730;53.068;6.572;2023-07-31T09:54:15;0.40;;;0.10;;
54831;SDS011;40730;53.068;6.572;2023-07-31T09:59:12;0.00;;;0.00;;
54831;SDS011;40730;53.068;6.572;2023-07-31T10:01:43;0.85;;;0.10;;
54831;SDS011;40730;53.068;6.572;2023-07-31T10:04:11;0.20;;;0.10;;
54831;SDS011;40730;53.068;6.572;2023-07-31T10:06:42;0.30;;;0.00;;
54831;SDS011;40730;53.068;6.572;2023-07-31T10:09:09;0.35;;;0.10;;
54831;SDS011;40730;53.068;6.572;2023-07-31T10:11:41;0.85;;;0.10;;
54831;SDS011;40730;53.068;6.572;2023-07-31T10:14:11;0.30;;;0.05;;
54831;SDS011;40730;53.068;6.572;2023-07-31T10:16:38;0.55;;;0.20;;
54831;SDS011;40730;53.068;6.572;2023-07-31T10:19:05;0.30;;;0.10;;
54831;SDS011;40730;53.068;6.572;2023-07-31T10:21:31;0.38;;;0.10;;
54831;SDS011;40730;53.068;6.572;2023-07-31T10:24:02;0.25;;;0.10;;
54831;SDS011;40730;53.068;6.572;2023-07-31T10:26:29;0.20;;;0.00;;
54831;SDS011;40730;53.068;6.572;2023-07-31T10:28:56;0.20;;;0.10;;
54831;SDS011;40730;53.068;6.572;2023-07-31T10:31:23;0.20;;;0.10;;
54831;SDS011;40730;53.068;6.572;2023-07-31T10:33:50;0.50;;;0.10;;
54831;SDS011;40730;53.068;6.572;2023-07-31T10:36:18;0.20;;;0.10;;
54831;SDS011;40730;53.068;6.572;2023-07-31T10:38:45;0.40;;;0.15;;
54831;SDS011;40730;53.068;6.572;2023-07-31T10:41:13;0.30;;;0.10;;
54831;SDS011;40730;53.068;6.572;2023-07-31T10:43:39;0.70;;;0.20;;
54831;SDS011;40730;53.068;6.572;2023-07-31T10:46:22;0.40;;;0.20;;
54831;SDS011;40730;53.068;6.572;2023-07-31T10:48:49;0.20;;;0.10;;
54831;SDS011;40730;53.068;6.572;2023-07-31T10:51:33;0.73;;;0.10;;
54831;SDS011;40730;53.068;6.572;2023-07-31T10:54:12;0.30;;;0.10;;
54831;SDS011;40730;53.068;6.572;2023-07-31T10:56:40;1.65;;;0.10;;
54831;SDS011;40730;53.068;6.572;2023-07-31T10:59:10;0.30;;;0.08;;
54831;SDS011;40730;53.068;6.572;2023-07-31T11:01:50;0.40;;;0.10;;
54831;SDS011;40730;53.068;6.572;2023-07-31T11:04:25;1.85;;;0.00;;
54831;SDS011;40730;53.068;6.572;2023-07-31T11:06:55;0.73;;;0.00;;
54831;SDS011;40730;53.068;6.572;2023-07-31T11:09:31;0.20;;;0.10;;
54831;SDS011;40730;53.068;6.572;2023-07-31T11:12:01;0.43;;;0.03;;
54831;SDS011;40730;53.068;6.572;2023-07-31T11:14:27;2.72;;;0.10;;
54831;SDS011;40730;53.068;6.572;2023-07-31T11:16:52;0.20;;;0.00;;
54831;SDS011;40730;53.068;6.572;2023-07-31T11:19:22;0.65;;;0.10;;
54831;SDS011;40730;53.068;6.572;2023-07-31T11:21:48;0.10;;;0.00;;
54831;SDS011;40730;53.068;6.572;2023-07-31T11:24:14;1.05;;;0.00;;
54831;SDS011;40730;53.068;6.572;2023-07-31T11:26:47;1.30;;;0.00;;
54831;SDS011;40730;53.068;6.572;2023-07-31T11:29:17;2.67;;;0.00;;
54831;SDS011;40730;53.068;6.572;2023-07-31T11:31:44;0.47;;;0.00;;
54831;SDS011;40730;53.068;6.572;2023-07-31T11:34:10;1.48;;;0.00;;
54831;SDS011;40730;53.068;6.572;2023-07-31T11:36:35;0.22;;;0.00;;
54831;SDS011;40730;53.068;6.572;2023-07-31T11:39:08;1.23;;;0.00;;
54831;SDS011;40730;53.068;6.572;2023-07-31T11:41:34;0.10;;;0.00;;
54831;SDS011;40730;53.068;6.572;2023-07-31T11:44:00;1.73;;;0.00;;
54831;SDS011;40730;53.068;6.572;2023-07-31T11:46:27;0.95;;;0.10;;
54831;SDS011;40730;53.068;6.572;2023-07-31T11:48:58;1.48;;;0.10;;
54831;SDS011;40730;53.068;6.572;2023-07-31T11:51:25;1.65;;;0.10;;
54831;SDS011;40730;53.068;6.572;2023-07-31T11:53:53;0.60;;;0.10;;
54831;SDS011;40730;53.068;6.572;2023-07-31T11:56:23;0.30;;;0.10;;
54831;SDS011;40730;53.068;6.572;2023-07-31T11:58:51;0.32;;;0.00;;
54831;SDS011;40730;53.068;6.572;2023-07-31T12:01:21;0.32;;;0.10;;
54831;SDS011;40730;53.068;6.572;2023-07-31T12:03:47;0.55;;;0.10;;
54831;SDS011;40730;53.068;6.572;2023-07-31T12:06:14;0.22;;;0.05;;
54831;SDS011;40730;53.068;6.572;2023-07-31T12:08:39;1.52;;;0.10;;
54831;SDS011;40730;53.068;6.572;2023-07-31T12:11:07;0.15;;;0.10;;
54831;SDS011;40730;53.068;6.572;2023-07-31T12:13:38;0.70;;;0.10;;
54831;SDS011;40730;53.068;6.572;2023-07-31T12:16:04;1.10;;;0.17;;
54831;SDS011;40730;53.068;6.572;2023-07-31T12:18:31;0.30;;;0.10;;
54831;SDS011;40730;53.068;6.572;2023-07-31T12:21:01;1.70;;;0.45;;
54831;SDS011;40730;53.068;6.572;2023-07-31T12:23:30;0.60;;;0.10;;
54831;SDS011;40730;53.068;6.572;2023-07-31T12:28:48;3.95;;;0.10;;
54831;SDS011;40730;53.068;6.572;2023-07-31T12:31:20;0.70;;;0.10;;
54831;SDS011;40730;53.068;6.572;2023-07-31T12:33:48;1.95;;;0.20;;
54831;SDS011;40730;53.068;6.572;2023-07-31T12:36:20;1.00;;;0.40;;
54831;SDS011;40730;53.068;6.572;2023-07-31T12:38:49;2.90;;;0.30;;
54831;SDS011;40730;53.068;6.572;2023-07-31T12:41:16;1.67;;;0.30;;
54831;SDS011;40730;53.068;6.572;2023-07-31T12:43:44;3.83;;;0.68;;
54831;SDS011;40730;53.068;6.572;2023-07-31T12:46:10;8.85;;;1.10;;
54831;SDS011;40730;53.068;6.572;2023-07-31T12:48:37;5.60;;;0.70;;
54831;SDS011;40730;53.068;6.572;2023-07-31T12:51:03;1.65;;;0.32;;
54831;SDS011;40730;53.068;6.572;2023-07-31T12:53:29;2.92;;;0.40;;
54831;SDS011;40730;53.068;6.572;2023-07-31T12:55:55;4.18;;;0.50;;
54831;SDS011;40730;53.068;6.572;2023-07-31T12:58:21;3.45;;;0.35;;
54831;SDS011;40730;53.068;6.572;2023-07-31T13:00:47;5.05;;;0.60;;
54831;SDS011;40730;53.068;6.572;2023-07-31T13:03:13;3.22;;;0.70;;
54831;SDS011;40730;53.068;6.572;2023-07-31T13:05:38;2.47;;;0.98;;
54831;SDS011;40730;53.068;6.572;2023-07-31T13:08:04;3.28;;;0.77;;
54831;SDS011;40730;53.068;6.572;2023-07-31T13:10:30;5.15;;;1.10;;
54831;SDS011;40730;53.068;6.572;2023-07-31T13:12:55;4.90;;;1.13;;
54831;SDS011;40730;53.068;6.572;2023-07-31T13:15:21;5.38;;;1.27;;
54831;SDS011;40730;53.068;6.572;2023-07-31T13:17:47;3.92;;;1.42;;
54831;SDS011;40730;53.068;6.572;2023-07-31T13:20:13;3.38;;;0.85;;
54831;SDS011;40730;53.068;6.572;2023-07-31T13:22:39;4.82;;;1.20;;
54831;SDS011;40730;53.068;6.572;2023-07-31T13:25:05;6.45;;;1.52;;
54831;SDS011;40730;53.068;6.572;2023-07-31T13:27:31;10.48;;;2.58;;
54831;SDS011;40730;53.068;6.572;2023-07-31T13:29:57;5.97;;;1.85;;
54831;SDS011;40730;53.068;6.572;2023-07-31T13:32:23;6.80;;;2.25;;
54831;SDS011;40730;53.068;6.572;2023-07-31T13:34:48;4.90;;;1.35;;
54831;SDS011;40730;53.068;6.572;2023-07-31T13:37:14;11.63;;;2.13;;
54831;SDS011;40730;53.068;6.572;2023-07-31T13:39:40;6.18;;;1.90;;
54831;SDS011;40730;53.068;6.572;2023-07-31T13:42:07;8.70;;;2.35;;
54831;SDS011;40730;53.068;6.572;2023-07-31T13:44:34;7.28;;;2.33;;
54831;SDS011;40730;53.068;6.572;2023-07-31T13:47:00;8.95;;;2.17;;
54831;SDS011;40730;53.068;6.572;2023-07-31T13:49:26;10.48;;;2.45;;
54831;SDS011;40730;53.068;6.572;2023-07-31T13:51:52;9.73;;;2.20;;
54831;SDS011;40730;53.068;6.572;2023-07-31T13:54:17;5.95;;;1.70;;
54831;SDS011;40730;53.068;6.572;2023-07-31T13:56:43;5.40;;;1.30;;
54831;SDS011;40730;53.068;6.572;2023-07-31T13:59:10;7.55;;;1.30;;
54831;SDS011;40730;53.068;6.572;2023-07-31T14:01:36;5.25;;;1.70;;
54831;SDS011;40730;53.068;6.572;2023-07-31T14:04:01;5.88;;;1.13;;
54831;SDS011;40730;53.068;6.572;2023-07-31T14:06:27;7.38;;;1.58;;
54831;SDS011;40730;53.068;6.572;2023-07-31T14:08:53;5.43;;;1.48;;
54831;SDS011;40730;53.068;6.572;2023-07-31T14:11:19;4.38;;;1.38;;
54831;SDS011;40730;53.068;6.572;2023-07-31T14:13:44;7.10;;;1.75;;
54831;SDS011;40730;53.068;6.572;2023-07-31T14:16:10;15.15;;;1.77;;
54831;SDS011;40730;53.068;6.572;2023-07-31T14:18:35;8.05;;;1.23;;
54831;SDS011;40730;53.068;6.572;2023-07-31T14:21:01;10.07;;;1.85;;
54831;SDS011;40730;53.068;6.572;2023-07-31T14:23:27;6.10;;;1.23;;
54831;SDS011;40730;53.068;6.572;2023-07-31T14:25:52;7.60;;;1.60;;
54831;SDS011;40730;53.068;6.572;2023-07-31T14:28:18;9.55;;;2.28;;
54831;SDS011;40730;53.068;6.572;2023-07-31T14:30:44;8.20;;;2.17;;
54831;SDS011;40730;53.068;6.572;2023-07-31T14:33:09;10.18;;;2.92;;
54831;SDS011;40730;53.068;6.572;2023-07-31T14:35:35;11.07;;;2.55;;
54831;SDS011;40730;53.068;6.572;2023-07-31T14:38:01;10.02;;;1.88;;
54831;SDS011;40730;53.068;6.572;2023-07-31T14:40:26;5.93;;;1.90;;
54831;SDS011;40730;53.068;6.572;2023-07-31T14:42:52;7.82;;;1.95;;
54831;SDS011;40730;53.068;6.572;2023-07-31T14:45:18;5.68;;;1.60;;
54831;SDS011;40730;53.068;6.572;2023-07-31T14:47:44;8.55;;;1.75;;
54831;SDS011;40730;53.068;6.572;2023-07-31T14:50:09;9.15;;;2.10;;
54831;SDS011;40730;53.068;6.572;2023-07-31T14:52:35;9.07;;;1.65;;
54831;SDS011;40730;53.068;6.572;2023-07-31T14:55:01;9.07;;;1.75;;
54831;SDS011;40730;53.068;6.572;2023-07-31T14:57:27;6.85;;;1.42;;